»·PEaware :: N260GB KIFP-KLAS

N260GB :: KIFP-KLAS

FLIGHT INFORMATION

Flight Status: Arrived
Operator: Privately registered:
United States
More flights under this callsign
Pilot: Gianluca B. (450)
Aircraft: Unknown
(P06T)
More flights by this aircraft type
Origin: KIFP Laughlin/Bullhead Intl
United States
Destination: KLAS McCarran Intl
United States
More flights between these airports :: More routes between these airports
Route: +BLD
File this flight plan on PilotEdge
Remarks:
Altitude:
(Current/Filed)
10,000ft
Speed:
(Current/Filed)
145kts
Departed: 16-Jun-18 01:22 PM
Arrived: 16-Jun-18 02:03 PM
Distance/Time
Traveled:
63nm/0:41
Distance/Time
To Go:
Arrived

Flight Plot

Page will automatically refresh every two minutes.


Map Options




Map Legend


Flown Route
Filed Route
Departure Airport
Arrival Airport
Navaid (VOR, NDB)
Fix

Horizontal Profiles

Position Reports

Time Latitude Longitude Heading Altitude Ground
Speed
16-Jun-18 13:00 35.159758 -114.556367 266 679ft 0kts
16-Jun-18 13:01 35.159758 -114.556367 266 679ft 0kts
16-Jun-18 13:02 35.159758 -114.556367 266 679ft 0kts
16-Jun-18 13:03 35.159758 -114.556367 266 679ft 0kts
16-Jun-18 13:04 35.159758 -114.556367 266 679ft 0kts
16-Jun-18 13:05 35.159758 -114.556367 266 679ft 0kts
16-Jun-18 13:06 35.159758 -114.556367 266 679ft 0kts
16-Jun-18 13:07 35.159758 -114.556367 266 679ft 0kts
16-Jun-18 13:08 35.159758 -114.556367 266 679ft 0kts
16-Jun-18 13:09 35.159758 -114.556367 266 679ft 0kts
16-Jun-18 13:10 35.159758 -114.556367 266 679ft 0kts
16-Jun-18 13:11 35.159758 -114.556367 266 679ft 0kts
16-Jun-18 13:12 35.159758 -114.556367 266 679ft 0kts
16-Jun-18 13:13 35.159758 -114.556367 266 679ft 0kts
16-Jun-18 13:14 35.159758 -114.556367 266 679ft 0kts
16-Jun-18 13:15 35.159758 -114.556367 266 679ft 0kts
16-Jun-18 13:16 35.159758 -114.556367 266 679ft 0kts
16-Jun-18 13:17 35.159984 -114.556666 358 677ft 11kts
16-Jun-18 13:18 35.162724 -114.557452 356 660ft 5kts
16-Jun-18 13:19 35.164907 -114.558742 355 643ft 11kts
16-Jun-18 13:20 35.166257 -114.559287 267 635ft 0kts
16-Jun-18 13:21 35.166248 -114.559381 256 634ft 4kts
16-Jun-18 13:22 35.155664 -114.559934 175 1009ft 78kts
16-Jun-18 13:23 35.132095 -114.558650 173 2194ft 93kts
16-Jun-18 13:24 35.106569 -114.557945 167 3484ft 95kts
16-Jun-18 13:25 35.112748 -114.527249 65 4740ft 126kts
16-Jun-18 13:26 35.094606 -114.518598 199 6020ft 89kts
16-Jun-18 13:27 35.068061 -114.525944 191 6700ft 117kts
16-Jun-18 13:28 35.049489 -114.550085 298 6983ft 143kts
16-Jun-18 13:29 35.088098 -114.563361 342 7801ft 143kts
16-Jun-18 13:30 35.125828 -114.574499 339 8696ft 138kts
16-Jun-18 13:31 35.162499 -114.586293 339 9596ft 134kts
16-Jun-18 13:32 35.202781 -114.599549 340 9699ft 161kts
16-Jun-18 13:33 35.244980 -114.613423 340 9697ft 154kts
16-Jun-18 13:34 35.285809 -114.626891 339 9698ft 151kts
16-Jun-18 13:35 35.326443 -114.640327 339 9699ft 151kts
16-Jun-18 13:36 35.365657 -114.653298 340 9698ft 151kts
16-Jun-18 13:37 35.406157 -114.666712 339 9699ft 151kts
16-Jun-18 13:38 35.446501 -114.680081 339 9699ft 151kts
16-Jun-18 13:39 35.485983 -114.693194 339 10009ft 150kts
16-Jun-18 13:40 35.528573 -114.707344 340 10010ft 163kts
16-Jun-18 13:41 35.572363 -114.721903 340 10012ft 164kts
16-Jun-18 13:42 35.615532 -114.736263 340 10014ft 158kts
16-Jun-18 13:43 35.657887 -114.750385 339 10017ft 157kts
16-Jun-18 13:44 35.700022 -114.764444 339 10019ft 157kts
16-Jun-18 13:45 35.740237 -114.777895 340 9892ft 166kts
16-Jun-18 13:46 35.778379 -114.790635 340 9326ft 172kts
16-Jun-18 13:47 35.824763 -114.805972 341 8638ft 174kts
16-Jun-18 13:48 35.871892 -114.820850 341 7962ft 176kts
16-Jun-18 13:49 35.910102 -114.854385 311 7269ft 171kts
16-Jun-18 13:50 35.944639 -114.892983 311 7020ft 165kts
16-Jun-18 13:51 35.978433 -114.930308 310 7017ft 162kts
16-Jun-18 13:52 36.012003 -114.967390 311 6992ft 163kts
16-Jun-18 13:53 36.047267 -115.006811 311 6318ft 171kts
16-Jun-18 13:54 36.087602 -115.026681 21 5553ft 178kts
16-Jun-18 13:55 36.129451 -115.006080 21 5498ft 160kts
16-Jun-18 13:56 36.166429 -114.993063 333 5493ft 151kts
16-Jun-18 13:57 36.178136 -115.035521 267 5498ft 133kts
16-Jun-18 13:58 36.176505 -115.081541 252 5156ft 139kts
16-Jun-18 13:59 36.159515 -115.119728 214 3712ft 113kts
16-Jun-18 14:00 36.132466 -115.137155 206 2730ft 101kts
16-Jun-18 14:01 36.109529 -115.150677 202 2429ft 75kts
16-Jun-18 14:02 36.091297 -115.161219 203 2121ft 63kts
16-Jun-18 14:03 36.084591 -115.165447 223 2144ft 14kts
16-Jun-18 14:04 36.082441 -115.168184 249 2159ft 12kts
16-Jun-18 14:05 36.080903 -115.170272 224 2166ft 0kts

Navigation Log

Ident Type
1. KIFP Airport
2. BLD Navaid
3. KLAS Airport